Thunder radar more information blitzortung!


Radar de pluja more information rain snow radar


Visita la nostra xarxa de llocs de meteo:

Template documentation
and downloads

And another site



Extreme low temperature From: 23-02-2018 09:00 Until: 09:59 warning for: Extreme low temperature Level: Yellow info button

Pagina Historial Weather Underground text

Diari Resum Cap La, TWC- Unitats:  Mètric    Imperial   Tant
« Previous Dia
SegĂźent Dia »
Diari Setmana Mensual Anual Personalitzada
  Maxima: Minima: Media:
Temperatura: -17.8 °C -17.1 °C -16.1 °C
Punt de rosada: -17.8 °C -20.3 °C -19.5 °C
Humitat: Humidity % 57 % 64 %
Wind Speed: 0 km/h 0 km/h 4.5 km/h
RĂ fegues de vent: 0 km/h - -
Vent:- - South
Pression baro: 0 hPa 33958.2 hPa -
Precipitacions: 0 mm    
Historical Graphs
 
 
Dades de taula per Cap La, TWC-
Temps Temperatura Punt de rosada Pression baro Vent Wind Speed RĂ fegues de vent Humitat Rainfall Rate (Hourly)
-17.8 °C -17.8 °C 0 hPa Calm     Humidity % 0 mm
00:04 -14.6 °C -18.4 °C 34063.2 hPa East 9 km/h 9 km/h 61 % 0 mm
00:09 -14.6 °C -18.4 °C 34063.2 hPa ESE 9 km/h 9 km/h 61 % 0 mm
00:14 -14.6 °C -18.4 °C 34063.2 hPa East 9.8 km/h 9.8 km/h 61 % 0 mm
00:19 -14.7 °C -18.7 °C 34063.2 hPa NE 9 km/h 9 km/h 60 % 0 mm
00:24 -14.8 °C -18.8 °C 34063.2 hPa East 9.8 km/h 9.8 km/h 60 % 0 mm
00:29 -14.9 °C -19 °C 34063.2 hPa SE 11.9 km/h 11.9 km/h 59 % 0 mm
00:34 -15 °C -19.1 °C 34063.2 hPa East 11.9 km/h 11.9 km/h 59 % 0 mm
00:39 -15.1 °C -19.1 °C 34029.3 hPa ESE 9 km/h 9 km/h 59 % 0 mm
00:44 -15.1 °C -19.2 °C 34029.3 hPa ESE 11.9 km/h 11.9 km/h 59 % 0 mm
00:49 -15.2 °C -19.3 °C 34029.3 hPa SE 6 km/h 6 km/h 59 % 0 mm
00:54 -15.2 °C -19.3 °C 34029.3 hPa SE 9 km/h 9 km/h 59 % 0 mm
00:59 -15.3 °C -19.3 °C 34029.3 hPa East 9 km/h 9 km/h 59 % 0 mm
01:04 -15.3 °C -19.3 °C 34029.3 hPa ESE 9 km/h 9 km/h 59 % 0 mm
01:09 -15.3 °C -19.6 °C 34029.3 hPa ESE 6 km/h 6 km/h 58 % 0 mm
01:14 -15.4 °C -19.6 °C 34029.3 hPa ESE 5.6 km/h   58 % 0 mm
01:19 -15.4 °C -19.6 °C 34029.3 hPa East 6 km/h 6 km/h 58 % 0 mm
01:24 -15.4 °C -19.6 °C 34029.3 hPa ENE 6 km/h 6 km/h 58 % 0 mm
01:29 -15.5 °C -19.7 °C 34029.3 hPa ESE 6.3 km/h 6.3 km/h 58 % 0 mm
01:34 -15.5 °C -19.7 °C 34029.3 hPa SW 3.1 km/h   58 % 0 mm
01:39 -15.6 °C -19.7 °C 34029.3 hPa SW 3.1 km/h 3.1 km/h 59 % 0 mm
01:44 -15.7 °C -19.7 °C 34029.3 hPa SE 11.9 km/h 11.9 km/h 59 % 0 mm
01:49 -15.7 °C -19.7 °C 34029.3 hPa Calm     59 % 0 mm
01:54 -15.7 °C -19.7 °C 34029.3 hPa Calm     59 % 0 mm
01:59 -15.7 °C -19.6 °C 34029.3 hPa Calm     60 % 0 mm
02:04 -15.7 °C -19.6 °C 34029.3 hPa SSW 6 km/h 6 km/h 60 % 0 mm
02:09 -15.7 °C -19.6 °C 34029.3 hPa SSW 3.1 km/h 3.1 km/h 60 % 0 mm
02:14 -15.7 °C -19.6 °C 34029.3 hPa SSW 4.2 km/h 4.2 km/h 60 % 0 mm
02:19 -15.7 °C -19.5 °C 34029.3 hPa SW 5.6 km/h 5.6 km/h 61 % 0 mm
02:24 -15.7 °C -19.6 °C 34029.3 hPa SSW 6.8 km/h 6.8 km/h 60 % 0 mm
02:29 -15.7 °C -19.5 °C 34029.3 hPa SW 6 km/h 6 km/h 61 % 0 mm
02:34 -15.7 °C -19.5 °C 34029.3 hPa SW 6 km/h 6 km/h 61 % 0 mm
02:39 -15.7 °C -19.5 °C 34029.3 hPa WSW 3.1 km/h 3.1 km/h 61 % 0 mm
02:44 -15.6 °C -19.4 °C 34029.3 hPa WSW 3.7 km/h 3.7 km/h 61 % 0 mm
02:49 -15.6 °C -19.3 °C 34029.3 hPa SW 6 km/h   61 % 0 mm
02:54 -15.5 °C -19.3 °C 33992.1 hPa SW 3.1 km/h 3.1 km/h 61 % 0 mm
02:59 -15.5 °C -19.3 °C 33992.1 hPa West 6 km/h 6 km/h 61 % 0 mm
03:04 -15.5 °C -19.2 °C 33992.1 hPa SW 8.5 km/h 8.5 km/h 62 % 0 mm
03:09 -15.5 °C -19.2 °C 33992.1 hPa SW 6 km/h 6 km/h 62 % 0 mm
03:14 -15.5 °C -19.2 °C 33992.1 hPa SW 5.6 km/h   62 % 0 mm
03:19 -15.6 °C -19.1 °C 33992.1 hPa SW 6 km/h 6 km/h 63 % 0 mm
03:24 -15.6 °C -19.1 °C 34029.3 hPa WSW 3.1 km/h 3.1 km/h 63 % 0 mm
03:29 -15.6 °C -19.1 °C 34029.3 hPa Calm     64 % 0 mm
03:34 -15.7 °C -19.1 °C 34029.3 hPa SW 6 km/h 6 km/h 64 % 0 mm
03:39 -15.7 °C -19.2 °C 33992.1 hPa WSW 6 km/h 6 km/h 64 % 0 mm
03:44 -15.7 °C -19.2 °C 33992.1 hPa WSW 6 km/h 6 km/h 64 % 0 mm
03:49 -15.8 °C -19.3 °C 33992.1 hPa SW 6 km/h 6 km/h 64 % 0 mm
03:54 -15.9 °C -19.2 °C 33992.1 hPa SW 3.7 km/h 3.7 km/h 65 % 0 mm
03:59 -15.9 °C -19.3 °C 33992.1 hPa WSW 7.6 km/h 7.6 km/h 65 % 0 mm
04:04 -16 °C -19.3 °C 33992.1 hPa WSW 6 km/h 6 km/h 65 % 0 mm
04:09 -16.1 °C -19.3 °C 33992.1 hPa WSW 3.1 km/h 3.1 km/h 66 % 0 mm
04:14 -16.1 °C -19.3 °C 33992.1 hPa Calm     66 % 0 mm
04:19 -16.1 °C -19.1 °C 33992.1 hPa Calm     67 % 0 mm
04:24 -16.1 °C -19 °C 33992.1 hPa Calm     68 % 0 mm
04:29 -16.1 °C -19 °C 33992.1 hPa Calm     68 % 0 mm
04:34 -16.1 °C -19 °C 33992.1 hPa Calm     68 % 0 mm
04:39 -16.1 °C -19.1 °C 33992.1 hPa Calm     68 % 0 mm
04:44 -16.1 °C -19.1 °C 33992.1 hPa Calm     68 % 0 mm
04:49 -16.2 °C -19 °C 33992.1 hPa Calm     69 % 0 mm
04:54 -16.2 °C -19.2 °C 33958.2 hPa Calm     68 % 0 mm
04:59 -16.3 °C -19.1 °C 33958.2 hPa Calm     69 % 0 mm
05:04 -16.3 °C -19.2 °C 33958.2 hPa SSE 3.1 km/h 3.1 km/h 69 % 0 mm
05:09 -16.3 °C -19.2 °C 33992.1 hPa Calm     69 % 0 mm
05:14 -16.4 °C -19.2 °C 33992.1 hPa Calm     69 % 0 mm
05:19 -16.3 °C -19.2 °C 33992.1 hPa Calm     69 % 0 mm
05:24 -16.4 °C -19.1 °C 33992.1 hPa SW 6 km/h   70 % 0 mm
05:29 -16.4 °C -19.3 °C 33992.1 hPa SW 6 km/h 6 km/h 69 % 0 mm
05:34 -16.6 °C -19.4 °C 33992.1 hPa WSW 6 km/h 6 km/h 69 % 0 mm
05:39 -16.5 °C -19.3 °C 33992.1 hPa SW 6 km/h 6 km/h 69 % 0 mm
05:44 -16.6 °C -19.4 °C 33992.1 hPa SW 6 km/h   69 % 0 mm
05:49 -16.6 °C -19.3 °C 33992.1 hPa SE 3.1 km/h 3.1 km/h 70 % 0 mm
05:54 -16.7 °C -19.4 °C 33992.1 hPa SW 6 km/h 6 km/h 70 % 0 mm
05:59 -16.7 °C -19.4 °C 33992.1 hPa SW 3.1 km/h   70 % 0 mm
06:04 -16.7 °C -19.4 °C 33992.1 hPa WSW 6 km/h 6 km/h 70 % 0 mm
06:09 -16.7 °C -19.4 °C 33992.1 hPa SW 6.3 km/h 6.3 km/h 70 % 0 mm
06:14 -16.7 °C -19.4 °C 33992.1 hPa WSW 6 km/h 6 km/h 70 % 0 mm
06:19 -16.8 °C -19.6 °C 33992.1 hPa SW 6 km/h 6 km/h 69 % 0 mm
06:24 -16.8 °C -19.5 °C 34029.3 hPa SW 3.1 km/h   70 % 0 mm
06:29 -16.8 °C -19.6 °C 34029.3 hPa SW 3.7 km/h 3.7 km/h 70 % 0 mm
06:34 -16.8 °C -19.6 °C 34029.3 hPa WSW 6 km/h 6 km/h 70 % 0 mm
06:39 -16.9 °C -19.6 °C 34029.3 hPa SW 3.1 km/h 3.1 km/h 70 % 0 mm
06:44 -16.9 °C -19.5 °C 34029.3 hPa Calm     71 % 0 mm
06:49 -16.9 °C -19.5 °C 34029.3 hPa Calm     71 % 0 mm
06:54 -16.9 °C -19.6 °C 34029.3 hPa SW 3.1 km/h 3.1 km/h 71 % 0 mm
06:59 -17 °C -19.7 °C 34029.3 hPa WNW 2.3 km/h   70 % 0 mm
07:04 -17.1 °C -19.9 °C 34029.3 hPa Calm     69 % 0 mm
07:09 -16.9 °C -19.8 °C 34029.3 hPa Calm     69 % 0 mm
07:14 -16.9 °C -19.8 °C 34029.3 hPa East 5.6 km/h   69 % 0 mm
07:19 -16.9 °C -19.8 °C 34029.3 hPa NNE 6 km/h 6 km/h 69 % 0 mm
07:24 -17 °C -19.9 °C 34063.2 hPa SW 6.8 km/h 6.8 km/h 68 % 0 mm
07:29 -17 °C -20.1 °C 34063.2 hPa West 7.6 km/h 7.6 km/h 67 % 0 mm
07:34 -16.9 °C -20.1 °C 34063.2 hPa Calm     66 % 0 mm
07:39 -16.9 °C -20.1 °C 34063.2 hPa Calm     66 % 0 mm
07:44 -16.9 °C -20.1 °C 34063.2 hPa West 3.1 km/h   66 % 0 mm
07:49 -16.9 °C -20.2 °C 34063.2 hPa Calm     65 % 0 mm
07:54 -16.9 °C -20.2 °C 34063.2 hPa West 3.1 km/h 3.1 km/h 65 % 0 mm
07:59 -16.9 °C -20.1 °C 34063.2 hPa SW 6 km/h 6 km/h 66 % 0 mm
08:04 -16.9 °C -20.1 °C 34063.2 hPa Calm     66 % 0 mm
08:09 -16.9 °C -20.1 °C 34063.2 hPa Calm     66 % 0 mm
08:14 -16.9 °C -20.1 °C 34063.2 hPa Calm     66 % 0 mm
08:19 -16.8 °C -20.1 °C 34063.2 hPa SSW 3.1 km/h   65 % 0 mm
08:24 -16.8 °C -20.1 °C 34063.2 hPa ENE 2.3 km/h   65 % 0 mm
08:29 -16.7 °C -20.1 °C 34063.2 hPa East 5.6 km/h 5.6 km/h 64 % 0 mm
08:34 -16.7 °C -20.1 °C 34063.2 hPa NE 6 km/h 6 km/h 64 % 0 mm
08:39 -16.7 °C -20.2 °C 34063.2 hPa North 6 km/h 6 km/h 63 % 0 mm
08:44 -16.6 °C -20.2 °C 34063.2 hPa ENE 6 km/h 6 km/h 62 % 0 mm
08:49 -16.6 °C -20.2 °C 34063.2 hPa Calm     62 % 0 mm
08:54 -16.5 °C -20.1 °C 34063.2 hPa ENE 6 km/h   63 % 0 mm
08:59 -16.4 °C -20.1 °C 34063.2 hPa Calm     62 % 0 mm
09:04 -16.5 °C -20.2 °C 34063.2 hPa ENE 3.1 km/h 3.1 km/h 61 % 0 mm
09:09 -16.4 °C -20.2 °C 34063.2 hPa NE 10.3 km/h 10.3 km/h 61 % 0 mm
09:14 -16.3 °C -20.2 °C 34063.2 hPa NNW 6 km/h 6 km/h 60 % 0 mm
09:19 -16.2 °C -20.2 °C 34063.2 hPa NNE 6 km/h 6 km/h 59 % 0 mm
09:24 -16.2 °C -20.3 °C 34063.2 hPa ENE 8 km/h 8 km/h 58 % 0 mm
09:29 -16.1 °C -20.2 °C 34063.2 hPa NE 6.3 km/h 6.3 km/h 58 % 0 mm
09:34 -16 °C -20.3 °C 34063.2 hPa ENE 3.1 km/h   57 % 0 mm
09:39 -15.9 °C -20.2 °C 34063.2 hPa ENE 9 km/h 9 km/h 57 % 0 mm
09:44 -15.8 °C -20.1 °C 34063.2 hPa North 7.6 km/h 7.6 km/h 57 % 0 mm
Meteo Sesrovires
Elogis d' Weather Underground - 3 mb

Guio original per  Jim McMurry - jmcmurry@mwt.net Adaptat per a la plantilla per  Wim van der Kuil - Leuven-Template.eu

Trobareu la nostra informacio del temps tambe a:

Weather Underground

AWEKAS